sensor_id;sensor_type;location;lat;lon;timestamp;pressure;altitude;pressure_sealevel;temperature;humidity
82512;BME280;72152;65.012;25.464;2023-12-22T00:02:41;98672.60;;;-6.60;73.41
82512;BME280;72152;65.012;25.464;2023-12-22T00:05:42;98678.83;;;-6.57;73.30
82512;BME280;72152;65.012;25.464;2023-12-22T00:08:42;98676.06;;;-6.52;73.44
82512;BME280;72152;65.012;25.464;2023-12-22T00:11:49;98683.43;;;-6.47;73.55
82512;BME280;72152;65.012;25.464;2023-12-22T00:14:54;98683.70;;;-6.44;73.30
82512;BME280;72152;65.012;25.464;2023-12-22T00:17:55;98686.47;;;-6.42;73.29
82512;BME280;72152;65.012;25.464;2023-12-22T00:20:54;98690.89;;;-6.43;73.33
82512;BME280;72152;65.012;25.464;2023-12-22T00:24:00;98689.41;;;-6.47;73.24
82512;BME280;72152;65.012;25.464;2023-12-22T00:27:04;98688.82;;;-6.49;73.51
82512;BME280;72152;65.012;25.464;2023-12-22T00:30:17;98688.39;;;-6.53;73.49
82512;BME280;72152;65.012;25.464;2023-12-22T00:33:24;98681.60;;;-6.56;73.52
82512;BME280;72152;65.012;25.464;2023-12-22T00:36:26;98679.02;;;-6.61;73.80
82512;BME280;72152;65.012;25.464;2023-12-22T00:39:28;98678.47;;;-6.69;73.70
82512;BME280;72152;65.012;25.464;2023-12-22T00:42:29;98678.09;;;-6.76;73.95
82512;BME280;72152;65.012;25.464;2023-12-22T00:45:38;98678.40;;;-6.76;74.05
82512;BME280;72152;65.012;25.464;2023-12-22T00:48:43;98681.63;;;-6.77;74.22
82512;BME280;72152;65.012;25.464;2023-12-22T00:51:46;98677.57;;;-6.75;74.30
82512;BME280;72152;65.012;25.464;2023-12-22T00:54:53;98672.34;;;-6.73;74.37
82512;BME280;72152;65.012;25.464;2023-12-22T00:58:00;98672.50;;;-6.74;74.60
82512;BME280;72152;65.012;25.464;2023-12-22T01:01:03;98674.97;;;-6.71;74.66
82512;BME280;72152;65.012;25.464;2023-12-22T01:04:08;98674.39;;;-6.68;74.76
82512;BME280;72152;65.012;25.464;2023-12-22T01:07:15;98676.92;;;-6.69;74.74
82512;BME280;72152;65.012;25.464;2023-12-22T01:10:19;98670.27;;;-6.69;74.92
82512;BME280;72152;65.012;25.464;2023-12-22T01:13:29;98662.65;;;-6.66;75.10
82512;BME280;72152;65.012;25.464;2023-12-22T01:16:26;98668.19;;;-6.64;75.11
82512;BME280;72152;65.012;25.464;2023-12-22T01:19:29;98671.98;;;-6.62;75.32
82512;BME280;72152;65.012;25.464;2023-12-22T01:22:44;98672.23;;;-6.60;75.39
82512;BME280;72152;65.012;25.464;2023-12-22T01:25:51;98670.40;;;-6.59;75.68
82512;BME280;72152;65.012;25.464;2023-12-22T01:28:57;98673.83;;;-6.59;75.40
82512;BME280;72152;65.012;25.464;2023-12-22T01:32:02;98677.52;;;-6.56;75.48
82512;BME280;72152;65.012;25.464;2023-12-22T01:35:08;98686.59;;;-6.50;75.58
82512;BME280;72152;65.012;25.464;2023-12-22T01:38:15;98686.42;;;-6.44;75.46
82512;BME280;72152;65.012;25.464;2023-12-22T01:41:17;98687.91;;;-6.40;75.66
82512;BME280;72152;65.012;25.464;2023-12-22T01:44:24;98686.96;;;-6.38;75.77
82512;BME280;72152;65.012;25.464;2023-12-22T01:47:32;98689.27;;;-6.35;75.95
82512;BME280;72152;65.012;25.464;2023-12-22T01:50:39;98696.67;;;-6.33;75.99
82512;BME280;72152;65.012;25.464;2023-12-22T01:53:45;98694.02;;;-6.30;76.18
82512;BME280;72152;65.012;25.464;2023-12-22T01:56:47;98694.77;;;-6.29;76.23
82512;BME280;72152;65.012;25.464;2023-12-22T01:59:50;98691.95;;;-6.26;76.24
82512;BME280;72152;65.012;25.464;2023-12-22T02:03:04;98693.42;;;-6.22;76.41
82512;BME280;72152;65.012;25.464;2023-12-22T02:06:09;98692.65;;;-6.19;76.46
82512;BME280;72152;65.012;25.464;2023-12-22T02:09:12;98689.79;;;-6.18;76.56
82512;BME280;72152;65.012;25.464;2023-12-22T02:12:23;98687.17;;;-6.13;76.58
82512;BME280;72152;65.012;25.464;2023-12-22T02:15:29;98685.52;;;-6.11;76.89
82512;BME280;72152;65.012;25.464;2023-12-22T02:18:40;98685.08;;;-6.09;76.78
82512;BME280;72152;65.012;25.464;2023-12-22T02:22:04;98684.70;;;-6.04;76.82
82512;BME280;72152;65.012;25.464;2023-12-22T02:25:13;98686.17;;;-6.01;76.94
82512;BME280;72152;65.012;25.464;2023-12-22T02:28:20;98698.73;;;-5.99;76.88
82512;BME280;72152;65.012;25.464;2023-12-22T02:31:26;98704.84;;;-5.95;77.09
82512;BME280;72152;65.012;25.464;2023-12-22T02:34:35;98708.16;;;-5.87;76.90
82512;BME280;72152;65.012;25.464;2023-12-22T02:37:41;98709.81;;;-5.76;76.91
82512;BME280;72152;65.012;25.464;2023-12-22T02:40:48;98705.20;;;-5.69;76.95
82512;BME280;72152;65.012;25.464;2023-12-22T02:43:58;98702.29;;;-5.63;76.77
82512;BME280;72152;65.012;25.464;2023-12-22T02:46:53;98705.36;;;-5.58;76.85
82512;BME280;72152;65.012;25.464;2023-12-22T02:50:00;98703.73;;;-5.54;76.81
82512;BME280;72152;65.012;25.464;2023-12-22T02:53:05;98704.98;;;-5.53;76.78
82512;BME280;72152;65.012;25.464;2023-12-22T02:56:08;98706.70;;;-5.53;76.82
82512;BME280;72152;65.012;25.464;2023-12-22T02:59:10;98713.08;;;-5.51;76.68
82512;BME280;72152;65.012;25.464;2023-12-22T03:02:11;98714.01;;;-5.48;76.86
82512;BME280;72152;65.012;25.464;2023-12-22T03:05:17;98709.74;;;-5.47;76.72
82512;BME280;72152;65.012;25.464;2023-12-22T03:08:20;98709.73;;;-5.49;76.71
82512;BME280;72152;65.012;25.464;2023-12-22T03:11:27;98709.61;;;-5.52;76.56
82512;BME280;72152;65.012;25.464;2023-12-22T03:14:30;98709.19;;;-5.55;76.60
82512;BME280;72152;65.012;25.464;2023-12-22T03:17:36;98703.16;;;-5.56;76.65
82512;BME280;72152;65.012;25.464;2023-12-22T03:20:39;98699.80;;;-5.60;76.74
82512;BME280;72152;65.012;25.464;2023-12-22T03:23:44;98698.36;;;-5.63;76.78
82512;BME280;72152;65.012;25.464;2023-12-22T03:26:50;98697.30;;;-5.64;76.78
82512;BME280;72152;65.012;25.464;2023-12-22T03:29:57;98702.09;;;-5.64;76.90
82512;BME280;72152;65.012;25.464;2023-12-22T03:33:04;98701.59;;;-5.64;76.92
82512;BME280;72152;65.012;25.464;2023-12-22T03:36:15;98700.89;;;-5.64;76.86
82512;BME280;72152;65.012;25.464;2023-12-22T03:39:21;98705.01;;;-5.64;76.96
82512;BME280;72152;65.012;25.464;2023-12-22T03:42:23;98701.63;;;-5.62;77.08
82512;BME280;72152;65.012;25.464;2023-12-22T03:45:27;98703.56;;;-5.60;76.96
82512;BME280;72152;65.012;25.464;2023-12-22T03:48:32;98700.30;;;-5.61;76.95
82512;BME280;72152;65.012;25.464;2023-12-22T03:51:38;98701.27;;;-5.57;76.85
82512;BME280;72152;65.012;25.464;2023-12-22T03:54:39;98698.93;;;-5.61;76.77
82512;BME280;72152;65.012;25.464;2023-12-22T03:57:47;98698.95;;;-5.66;76.99
82512;BME280;72152;65.012;25.464;2023-12-22T04:00:44;98704.02;;;-5.69;76.98
82512;BME280;72152;65.012;25.464;2023-12-22T04:03:51;98701.73;;;-5.70;77.01
82512;BME280;72152;65.012;25.464;2023-12-22T04:06:57;98707.04;;;-5.71;77.11
82512;BME280;72152;65.012;25.464;2023-12-22T04:10:01;98711.62;;;-5.72;77.03
82512;BME280;72152;65.012;25.464;2023-12-22T04:13:08;98707.80;;;-5.74;77.03
82512;BME280;72152;65.012;25.464;2023-12-22T04:16:20;98711.64;;;-5.71;77.04
82512;BME280;72152;65.012;25.464;2023-12-22T04:19:24;98712.83;;;-5.72;77.16
82512;BME280;72152;65.012;25.464;2023-12-22T04:22:28;98717.00;;;-5.69;77.00
82512;BME280;72152;65.012;25.464;2023-12-22T04:25:34;98719.50;;;-5.72;76.98
82512;BME280;72152;65.012;25.464;2023-12-22T04:28:42;98719.30;;;-5.79;76.92
82512;BME280;72152;65.012;25.464;2023-12-22T04:31:44;98717.65;;;-5.84;76.93
82512;BME280;72152;65.012;25.464;2023-12-22T04:34:50;98719.13;;;-5.92;76.92
82512;BME280;72152;65.012;25.464;2023-12-22T04:37:50;98720.44;;;-5.95;76.88
82512;BME280;72152;65.012;25.464;2023-12-22T04:40:55;98727.88;;;-5.97;77.02
82512;BME280;72152;65.012;25.464;2023-12-22T04:43:57;98722.83;;;-6.00;76.94
82512;BME280;72152;65.012;25.464;2023-12-22T04:47:00;98722.21;;;-6.04;77.14
82512;BME280;72152;65.012;25.464;2023-12-22T04:50:05;98723.53;;;-6.05;77.17
82512;BME280;72152;65.012;25.464;2023-12-22T04:56:25;98725.11;;;-6.04;76.96
82512;BME280;72152;65.012;25.464;2023-12-22T04:59:35;98724.49;;;-6.02;76.84
82512;BME280;72152;65.012;25.464;2023-12-22T05:02:42;98729.14;;;-6.01;76.79
82512;BME280;72152;65.012;25.464;2023-12-22T05:05:47;98723.59;;;-6.03;76.87
82512;BME280;72152;65.012;25.464;2023-12-22T05:08:48;98732.81;;;-6.04;76.64
82512;BME280;72152;65.012;25.464;2023-12-22T05:11:54;98733.09;;;-6.06;76.74
82512;BME280;72152;65.012;25.464;2023-12-22T05:14:59;98733.16;;;-6.09;76.62
82512;BME280;72152;65.012;25.464;2023-12-22T05:17:59;98732.40;;;-6.18;76.50
82512;BME280;72152;65.012;25.464;2023-12-22T05:21:06;98735.02;;;-6.27;76.76
82512;BME280;72152;65.012;25.464;2023-12-22T05:24:10;98729.25;;;-6.31;76.74
82512;BME280;72152;65.012;25.464;2023-12-22T05:27:07;98730.83;;;-6.36;76.63
82512;BME280;72152;65.012;25.464;2023-12-22T05:30:14;98737.91;;;-6.44;76.72
82512;BME280;72152;65.012;25.464;2023-12-22T05:33:17;98735.34;;;-6.45;76.60
82512;BME280;72152;65.012;25.464;2023-12-22T05:36:23;98737.91;;;-6.44;76.77
82512;BME280;72152;65.012;25.464;2023-12-22T05:39:29;98734.52;;;-6.48;76.45
82512;BME280;72152;65.012;25.464;2023-12-22T05:42:35;98731.88;;;-6.56;76.50
82512;BME280;72152;65.012;25.464;2023-12-22T05:45:45;98733.17;;;-6.64;76.40
82512;BME280;72152;65.012;25.464;2023-12-22T05:48:53;98736.04;;;-6.70;76.33
82512;BME280;72152;65.012;25.464;2023-12-22T05:51:56;98739.61;;;-6.76;76.25
82512;BME280;72152;65.012;25.464;2023-12-22T05:55:08;98742.95;;;-6.84;76.10
82512;BME280;72152;65.012;25.464;2023-12-22T05:58:19;98742.01;;;-6.91;76.31
82512;BME280;72152;65.012;25.464;2023-12-22T06:01:28;98747.48;;;-6.96;76.15
82512;BME280;72152;65.012;25.464;2023-12-22T06:04:27;98750.48;;;-7.03;76.06
82512;BME280;72152;65.012;25.464;2023-12-22T06:07:34;98747.52;;;-7.10;76.10
82512;BME280;72152;65.012;25.464;2023-12-22T06:10:45;98750.48;;;-7.18;75.87
82512;BME280;72152;65.012;25.464;2023-12-22T06:13:46;98753.42;;;-7.28;75.74
82512;BME280;72152;65.012;25.464;2023-12-22T06:16:53;98753.29;;;-7.36;75.87
82512;BME280;72152;65.012;25.464;2023-12-22T06:20:06;98750.77;;;-7.40;75.83
82512;BME280;72152;65.012;25.464;2023-12-22T06:23:10;98758.42;;;-7.41;75.95
82512;BME280;72152;65.012;25.464;2023-12-22T06:26:14;98761.98;;;-7.41;75.88
82512;BME280;72152;65.012;25.464;2023-12-22T06:29:16;98757.59;;;-7.44;75.67
82512;BME280;72152;65.012;25.464;2023-12-22T06:32:17;98764.73;;;-7.45;75.65
82512;BME280;72152;65.012;25.464;2023-12-22T06:35:27;98770.48;;;-7.47;75.71
82512;BME280;72152;65.012;25.464;2023-12-22T06:38:36;98770.02;;;-7.45;75.63
82512;BME280;72152;65.012;25.464;2023-12-22T06:41:42;98768.20;;;-7.44;75.53
82512;BME280;72152;65.012;25.464;2023-12-22T06:44:51;98766.96;;;-7.45;75.47
82512;BME280;72152;65.012;25.464;2023-12-22T06:47:58;98763.91;;;-7.44;75.34
82512;BME280;72152;65.012;25.464;2023-12-22T06:51:04;98768.16;;;-7.45;75.25
82512;BME280;72152;65.012;25.464;2023-12-22T06:54:11;98772.77;;;-7.45;75.28
82512;BME280;72152;65.012;25.464;2023-12-22T06:57:14;98771.31;;;-7.43;75.17
82512;BME280;72152;65.012;25.464;2023-12-22T07:00:29;98771.48;;;-7.42;75.06
82512;BME280;72152;65.012;25.464;2023-12-22T07:03:32;98768.02;;;-7.44;74.96
82512;BME280;72152;65.012;25.464;2023-12-22T07:06:35;98769.16;;;-7.41;75.08
82512;BME280;72152;65.012;25.464;2023-12-22T07:09:42;98767.15;;;-7.40;75.11
82512;BME280;72152;65.012;25.464;2023-12-22T07:12:43;98762.39;;;-7.39;75.02
82512;BME280;72152;65.012;25.464;2023-12-22T07:15:47;98760.84;;;-7.40;75.01
82512;BME280;72152;65.012;25.464;2023-12-22T07:18:46;98765.84;;;-7.38;74.94
82512;BME280;72152;65.012;25.464;2023-12-22T07:21:52;98766.36;;;-7.38;74.94
82512;BME280;72152;65.012;25.464;2023-12-22T07:24:54;98764.64;;;-7.43;74.95
82512;BME280;72152;65.012;25.464;2023-12-22T07:28:00;98778.43;;;-7.44;75.04
82512;BME280;72152;65.012;25.464;2023-12-22T07:31:06;98781.11;;;-7.46;75.03
82512;BME280;72152;65.012;25.464;2023-12-22T07:34:04;98784.46;;;-7.48;75.16
82512;BME280;72152;65.012;25.464;2023-12-22T07:37:19;98779.88;;;-7.52;75.07
82512;BME280;72152;65.012;25.464;2023-12-22T07:43:38;98776.14;;;-7.56;75.29
82512;BME280;72152;65.012;25.464;2023-12-22T07:46:40;98774.36;;;-7.58;75.31
82512;BME280;72152;65.012;25.464;2023-12-22T07:49:43;98776.16;;;-7.60;75.33
82512;BME280;72152;65.012;25.464;2023-12-22T07:52:51;98771.51;;;-7.61;75.47
82512;BME280;72152;65.012;25.464;2023-12-22T07:56:01;98780.26;;;-7.60;75.43
82512;BME280;72152;65.012;25.464;2023-12-22T07:59:12;98782.60;;;-7.61;75.45
82512;BME280;72152;65.012;25.464;2023-12-22T08:02:21;98785.55;;;-7.60;75.35
82512;BME280;72152;65.012;25.464;2023-12-22T08:05:36;98784.36;;;-7.60;75.38
82512;BME280;72152;65.012;25.464;2023-12-22T08:08:37;98784.56;;;-7.59;75.38
82512;BME280;72152;65.012;25.464;2023-12-22T08:11:42;98788.46;;;-7.60;75.36
82512;BME280;72152;65.012;25.464;2023-12-22T08:14:53;98798.55;;;-7.59;75.49
82512;BME280;72152;65.012;25.464;2023-12-22T08:17:59;98798.04;;;-7.55;75.46
82512;BME280;72152;65.012;25.464;2023-12-22T08:21:06;98800.83;;;-7.48;75.45
82512;BME280;72152;65.012;25.464;2023-12-22T08:24:15;98802.02;;;-7.44;75.46
82512;BME280;72152;65.012;25.464;2023-12-22T08:27:21;98804.40;;;-7.39;75.42
82512;BME280;72152;65.012;25.464;2023-12-22T08:30:29;98808.92;;;-7.37;75.32
82512;BME280;72152;65.012;25.464;2023-12-22T08:33:35;98811.21;;;-7.35;75.16
82512;BME280;72152;65.012;25.464;2023-12-22T08:36:41;98811.67;;;-7.32;75.32
82512;BME280;72152;65.012;25.464;2023-12-22T08:39:47;98814.67;;;-7.30;75.29
82512;BME280;72152;65.012;25.464;2023-12-22T08:42:53;98815.80;;;-7.26;75.28
82512;BME280;72152;65.012;25.464;2023-12-22T08:45:54;98820.73;;;-7.22;75.29
82512;BME280;72152;65.012;25.464;2023-12-22T08:48:59;98823.04;;;-7.16;75.34
82512;BME280;72152;65.012;25.464;2023-12-22T08:52:05;98826.71;;;-7.08;75.15
82512;BME280;72152;65.012;25.464;2023-12-22T08:55:17;98829.02;;;-7.01;75.10
82512;BME280;72152;65.012;25.464;2023-12-22T08:58:28;98828.88;;;-6.95;75.11
82512;BME280;72152;65.012;25.464;2023-12-22T09:01:32;98830.30;;;-6.89;74.91
82512;BME280;72152;65.012;25.464;2023-12-22T09:04:36;98834.34;;;-6.81;75.13
82512;BME280;72152;65.012;25.464;2023-12-22T09:07:41;98834.32;;;-6.72;75.00
82512;BME280;72152;65.012;25.464;2023-12-22T09:10:51;98828.35;;;-6.66;74.81
82512;BME280;72152;65.012;25.464;2023-12-22T09:13:52;98832.86;;;-6.59;74.83
82512;BME280;72152;65.012;25.464;2023-12-22T09:16:54;98833.95;;;-6.58;74.56
82512;BME280;72152;65.012;25.464;2023-12-22T09:19:56;98838.19;;;-6.59;74.32
82512;BME280;72152;65.012;25.464;2023-12-22T09:22:57;98841.91;;;-6.65;74.13
82512;BME280;72152;65.012;25.464;2023-12-22T09:26:09;98844.33;;;-6.69;74.17
82512;BME280;72152;65.012;25.464;2023-12-22T09:29:11;98851.26;;;-6.71;74.33
82512;BME280;72152;65.012;25.464;2023-12-22T09:32:16;98855.13;;;-6.73;74.23
82512;BME280;72152;65.012;25.464;2023-12-22T09:35:17;98850.14;;;-6.74;74.16
82512;BME280;72152;65.012;25.464;2023-12-22T09:38:22;98852.42;;;-6.72;73.90
82512;BME280;72152;65.012;25.464;2023-12-22T09:41:25;98846.67;;;-6.71;74.02
82512;BME280;72152;65.012;25.464;2023-12-22T09:44:37;98841.67;;;-6.77;73.97
82512;BME280;72152;65.012;25.464;2023-12-22T09:47:45;98845.14;;;-6.80;73.80
82512;BME280;72152;65.012;25.464;2023-12-22T09:50:51;98843.77;;;-6.85;73.52
82512;BME280;72152;65.012;25.464;2023-12-22T09:53:51;98837.64;;;-6.94;73.56
82512;BME280;72152;65.012;25.464;2023-12-22T09:56:59;98836.77;;;-7.00;73.83
82512;BME280;72152;65.012;25.464;2023-12-22T10:00:06;98838.83;;;-7.04;73.85
82512;BME280;72152;65.012;25.464;2023-12-22T10:03:13;98836.42;;;-7.04;73.97
82512;BME280;72152;65.012;25.464;2023-12-22T10:06:18;98835.85;;;-7.01;74.06
82512;BME280;72152;65.012;25.464;2023-12-22T10:09:23;98831.73;;;-6.97;74.57
82512;BME280;72152;65.012;25.464;2023-12-22T10:12:21;98835.75;;;-6.89;74.84
82512;BME280;72152;65.012;25.464;2023-12-22T10:15:27;98841.67;;;-6.81;75.27
82512;BME280;72152;65.012;25.464;2023-12-22T10:18:39;98847.23;;;-6.74;75.21
82512;BME280;72152;65.012;25.464;2023-12-22T10:21:46;98849.50;;;-6.63;75.64
82512;BME280;72152;65.012;25.464;2023-12-22T10:24:49;98847.30;;;-6.52;75.80
82512;BME280;72152;65.012;25.464;2023-12-22T10:27:54;98842.80;;;-6.43;75.93
82512;BME280;72152;65.012;25.464;2023-12-22T10:30:56;98841.20;;;-6.35;76.00
82512;BME280;72152;65.012;25.464;2023-12-22T10:34:05;98833.83;;;-6.25;75.91
82512;BME280;72152;65.012;25.464;2023-12-22T10:36:55;98836.63;;;-6.18;76.29
82512;BME280;72152;65.012;25.464;2023-12-22T10:39:57;98839.30;;;-6.14;76.29
82512;BME280;72152;65.012;25.464;2023-12-22T10:43:05;98841.50;;;-6.10;76.29
82512;BME280;72152;65.012;25.464;2023-12-22T10:46:11;98842.90;;;-6.03;76.42
82512;BME280;72152;65.012;25.464;2023-12-22T10:49:14;98840.90;;;-5.96;76.23
82512;BME280;72152;65.012;25.464;2023-12-22T10:52:23;98844.30;;;-5.92;76.11
82512;BME280;72152;65.012;25.464;2023-12-22T10:55:30;98838.70;;;-5.89;76.08
82512;BME280;72152;65.012;25.464;2023-12-22T10:58:32;98845.17;;;-5.86;76.05
82512;BME280;72152;65.012;25.464;2023-12-22T11:01:35;98840.20;;;-5.86;76.12
82512;BME280;72152;65.012;25.464;2023-12-22T11:04:39;98837.12;;;-5.86;76.13
82512;BME280;72152;65.012;25.464;2023-12-22T11:07:49;98837.15;;;-5.85;76.00
82512;BME280;72152;65.012;25.464;2023-12-22T11:10:51;98835.93;;;-5.86;76.06
82512;BME280;72152;65.012;25.464;2023-12-22T11:13:58;98832.31;;;-5.86;76.10
82512;BME280;72152;65.012;25.464;2023-12-22T11:17:01;98835.96;;;-5.90;76.04
82512;BME280;72152;65.012;25.464;2023-12-22T11:20:03;98832.77;;;-5.94;76.15
82512;BME280;72152;65.012;25.464;2023-12-22T11:23:11;98830.39;;;-5.98;76.32
82512;BME280;72152;65.012;25.464;2023-12-22T11:26:13;98822.33;;;-5.99;76.66
82512;BME280;72152;65.012;25.464;2023-12-22T11:29:16;98817.52;;;-5.99;76.72
82512;BME280;72152;65.012;25.464;2023-12-22T11:32:22;98818.03;;;-5.99;76.90
82512;BME280;72152;65.012;25.464;2023-12-22T11:35:28;98811.92;;;-5.98;76.98
82512;BME280;72152;65.012;25.464;2023-12-22T11:38:35;98817.77;;;-5.97;76.98
82512;BME280;72152;65.012;25.464;2023-12-22T11:41:43;98815.69;;;-5.92;77.09
82512;BME280;72152;65.012;25.464;2023-12-22T11:44:50;98812.90;;;-5.88;77.17
82512;BME280;72152;65.012;25.464;2023-12-22T11:47:52;98812.36;;;-5.84;77.27
82512;BME280;72152;65.012;25.464;2023-12-22T11:50:57;98819.92;;;-5.81;77.43
82512;BME280;72152;65.012;25.464;2023-12-22T11:54:04;98822.45;;;-5.77;77.46
82512;BME280;72152;65.012;25.464;2023-12-22T11:57:42;98817.02;;;-5.76;77.62
82512;BME280;72152;65.012;25.464;2023-12-22T12:00:53;98817.64;;;-5.72;77.38
82512;BME280;72152;65.012;25.464;2023-12-22T12:04:01;98814.35;;;-5.68;77.46
82512;BME280;72152;65.012;25.464;2023-12-22T12:07:38;98815.07;;;-5.61;77.29
82512;BME280;72152;65.012;25.464;2023-12-22T12:11:04;98809.45;;;-5.54;77.07
82512;BME280;72152;65.012;25.464;2023-12-22T12:14:13;98812.98;;;-5.50;77.07
82512;BME280;72152;65.012;25.464;2023-12-22T12:17:18;98810.98;;;-5.48;77.03
82512;BME280;72152;65.012;25.464;2023-12-22T12:20:15;98815.73;;;-5.44;76.93
82512;BME280;72152;65.012;25.464;2023-12-22T12:23:21;98810.33;;;-5.41;76.92
82512;BME280;72152;65.012;25.464;2023-12-22T12:26:19;98816.25;;;-5.38;77.08
82512;BME280;72152;65.012;25.464;2023-12-22T12:29:28;98819.02;;;-5.37;76.97
82512;BME280;72152;65.012;25.464;2023-12-22T12:32:34;98817.32;;;-5.36;77.04
82512;BME280;72152;65.012;25.464;2023-12-22T12:35:36;98815.51;;;-5.34;77.11
82512;BME280;72152;65.012;25.464;2023-12-22T12:38:48;98813.17;;;-5.32;77.28
82512;BME280;72152;65.012;25.464;2023-12-22T12:41:56;98811.89;;;-5.28;77.21
82512;BME280;72152;65.012;25.464;2023-12-22T12:45:00;98810.97;;;-5.25;77.19
82512;BME280;72152;65.012;25.464;2023-12-22T12:48:10;98813.29;;;-5.22;77.36
82512;BME280;72152;65.012;25.464;2023-12-22T12:51:21;98809.06;;;-5.20;77.15
82512;BME280;72152;65.012;25.464;2023-12-22T12:54:20;98814.52;;;-5.15;77.37
82512;BME280;72152;65.012;25.464;2023-12-22T12:57:23;98812.23;;;-5.10;77.55
82512;BME280;72152;65.012;25.464;2023-12-22T13:00:33;98812.81;;;-5.08;77.34
82512;BME280;72152;65.012;25.464;2023-12-22T13:03:44;98809.79;;;-5.06;77.46
82512;BME280;72152;65.012;25.464;2023-12-22T13:06:54;98814.68;;;-5.03;77.27
82512;BME280;72152;65.012;25.464;2023-12-22T13:10:01;98817.02;;;-4.99;77.38
82512;BME280;72152;65.012;25.464;2023-12-22T13:12:59;98820.29;;;-4.98;77.51
82512;BME280;72152;65.012;25.464;2023-12-22T13:16:05;98820.27;;;-5.00;77.38
82512;BME280;72152;65.012;25.464;2023-12-22T13:19:07;98819.09;;;-4.98;77.43
82512;BME280;72152;65.012;25.464;2023-12-22T13:22:11;98820.48;;;-4.97;77.40
82512;BME280;72152;65.012;25.464;2023-12-22T13:25:21;98817.05;;;-4.97;77.31
82512;BME280;72152;65.012;25.464;2023-12-22T13:28:31;98816.70;;;-4.98;77.38
82512;BME280;72152;65.012;25.464;2023-12-22T13:31:35;98815.70;;;-4.97;77.39
82512;BME280;72152;65.012;25.464;2023-12-22T13:34:40;98812.61;;;-4.97;77.20
82512;BME280;72152;65.012;25.464;2023-12-22T13:37:59;98813.13;;;-4.97;77.39
82512;BME280;72152;65.012;25.464;2023-12-22T13:41:07;98815.86;;;-4.97;77.42
82512;BME280;72152;65.012;25.464;2023-12-22T13:44:15;98809.50;;;-4.98;77.36
82512;BME280;72152;65.012;25.464;2023-12-22T13:47:17;98810.55;;;-4.96;77.29
82512;BME280;72152;65.012;25.464;2023-12-22T13:50:25;98813.33;;;-4.96;77.21
82512;BME280;72152;65.012;25.464;2023-12-22T13:53:30;98815.89;;;-4.96;77.18
82512;BME280;72152;65.012;25.464;2023-12-22T13:56:35;98816.38;;;-4.97;77.33
82512;BME280;72152;65.012;25.464;2023-12-22T13:59:36;98816.00;;;-4.98;77.31
82512;BME280;72152;65.012;25.464;2023-12-22T14:02:43;98810.50;;;-4.99;77.43
82512;BME280;72152;65.012;25.464;2023-12-22T14:05:50;98809.88;;;-4.96;77.37
82512;BME280;72152;65.012;25.464;2023-12-22T14:08:58;98807.01;;;-4.95;77.33
82512;BME280;72152;65.012;25.464;2023-12-22T14:11:59;98810.12;;;-4.93;77.47
82512;BME280;72152;65.012;25.464;2023-12-22T14:15:01;98811.90;;;-4.91;77.52
82512;BME280;72152;65.012;25.464;2023-12-22T14:18:10;98813.38;;;-4.93;77.14
82512;BME280;72152;65.012;25.464;2023-12-22T14:21:18;98817.04;;;-4.98;77.39
82512;BME280;72152;65.012;25.464;2023-12-22T14:24:25;98815.75;;;-5.01;77.41
82512;BME280;72152;65.012;25.464;2023-12-22T14:27:31;98812.45;;;-5.03;77.27
82512;BME280;72152;65.012;25.464;2023-12-22T14:30:34;98815.88;;;-5.03;77.32
82512;BME280;72152;65.012;25.464;2023-12-22T14:33:44;98811.06;;;-5.03;77.35
82512;BME280;72152;65.012;25.464;2023-12-22T14:36:54;98811.98;;;-5.01;77.45
82512;BME280;72152;65.012;25.464;2023-12-22T14:40:05;98812.02;;;-4.99;77.44
82512;BME280;72152;65.012;25.464;2023-12-22T14:43:07;98813.08;;;-4.99;77.53
82512;BME280;72152;65.012;25.464;2023-12-22T14:46:07;98811.21;;;-4.98;77.38
82512;BME280;72152;65.012;25.464;2023-12-22T14:49:05;98817.07;;;-4.97;77.49
82512;BME280;72152;65.012;25.464;2023-12-22T14:52:08;98815.63;;;-4.93;77.60
82512;BME280;72152;65.012;25.464;2023-12-22T14:55:15;98825.64;;;-4.91;77.63
82512;BME280;72152;65.012;25.464;2023-12-22T14:58:22;98827.73;;;-4.89;77.47
82512;BME280;72152;65.012;25.464;2023-12-22T15:01:28;98826.36;;;-4.90;77.56
82512;BME280;72152;65.012;25.464;2023-12-22T15:04:33;98825.36;;;-4.88;77.59
82512;BME280;72152;65.012;25.464;2023-12-22T15:07:38;98832.42;;;-4.87;77.63
82512;BME280;72152;65.012;25.464;2023-12-22T15:10:39;98833.52;;;-4.84;77.65
82512;BME280;72152;65.012;25.464;2023-12-22T15:13:44;98834.12;;;-4.81;77.94
82512;BME280;72152;65.012;25.464;2023-12-22T15:16:45;98832.98;;;-4.79;77.80
82512;BME280;72152;65.012;25.464;2023-12-22T15:19:51;98833.32;;;-4.79;77.91
82512;BME280;72152;65.012;25.464;2023-12-22T15:22:54;98833.20;;;-4.77;78.14
82512;BME280;72152;65.012;25.464;2023-12-22T15:25:56;98829.08;;;-4.78;78.03
82512;BME280;72152;65.012;25.464;2023-12-22T15:29:01;98827.73;;;-4.77;78.16
82512;BME280;72152;65.012;25.464;2023-12-22T15:32:02;98830.04;;;-4.74;78.14
82512;BME280;72152;65.012;25.464;2023-12-22T15:35:10;98833.52;;;-4.72;78.11
82512;BME280;72152;65.012;25.464;2023-12-22T15:38:16;98831.11;;;-4.72;78.20
82512;BME280;72152;65.012;25.464;2023-12-22T15:41:26;98835.83;;;-4.69;78.40
82512;BME280;72152;65.012;25.464;2023-12-22T15:44:26;98834.14;;;-4.68;78.20
82512;BME280;72152;65.012;25.464;2023-12-22T15:47:23;98837.42;;;-4.66;78.45
82512;BME280;72152;65.012;25.464;2023-12-22T15:50:27;98843.73;;;-4.62;78.34
82512;BME280;72152;65.012;25.464;2023-12-22T15:53:33;98843.11;;;-4.59;78.41
82512;BME280;72152;65.012;25.464;2023-12-22T15:56:34;98845.09;;;-4.56;78.40
82512;BME280;72152;65.012;25.464;2023-12-22T15:59:44;98843.09;;;-4.53;78.33
82512;BME280;72152;65.012;25.464;2023-12-22T16:02:47;98848.86;;;-4.49;78.35
82512;BME280;72152;65.012;25.464;2023-12-22T16:05:53;98844.52;;;-4.45;78.50
82512;BME280;72152;65.012;25.464;2023-12-22T16:09:00;98851.85;;;-4.40;78.47
82512;BME280;72152;65.012;25.464;2023-12-22T16:11:56;98849.17;;;-4.37;78.30
82512;BME280;72152;65.012;25.464;2023-12-22T16:14:55;98852.98;;;-4.36;78.42
82512;BME280;72152;65.012;25.464;2023-12-22T16:17:56;98855.21;;;-4.36;78.35